Time;durP1;ratioP1;P1;durP2;ratioP2;P2;SDS_P1;SDS_P2;PMS_P1;PMS_P2;Temp;Humidity;BMP_temperature;BMP_pressure;BME280_temperature;BME280_humidity;BME280_pressure;Samples;Min_cycle;Max_cycle;Signal;HPM_P1;HPM_P2
2021/11/17 02:27:56;;;;;;;66.07;26.95;;;6.70;99.90;;;;;;5024610;28;20728;-80
2021/11/17 02:30:37;;;;;;;64.78;26.42;;;6.60;99.90;;;;;;4992294;28;20144;-80
2021/11/17 02:33:41;;;;;;;61.30;27.20;;;6.60;99.90;;;;;;5032060;28;20049;-81
2021/11/17 02:36:32;;;;;;;57.95;23.83;;;6.60;99.90;;;;;;5003510;28;20260;-80
2021/11/17 02:39:18;;;;;;;57.08;23.50;;;6.70;99.90;;;;;;4986987;28;20489;-81
2021/11/17 02:42:12;;;;;;;66.28;25.70;;;6.70;99.90;;;;;;5051949;28;20037;-81
2021/11/17 02:45:00;;;;;;;72.82;27.67;;;6.70;99.90;;;;;;4983864;28;20040;-83
2021/11/17 02:47:33;;;;;;;64.95;25.98;;;6.70;99.90;;;;;;5014254;28;20041;-83
2021/11/17 02:50:30;;;;;;;62.13;26.20;;;6.60;99.90;;;;;;5001751;28;20037;-83
2021/11/17 02:53:03;;;;;;;73.75;27.77;;;6.70;99.90;;;;;;4999200;28;20048;-83
2021/11/17 02:55:48;;;;;;;54.63;23.08;;;6.60;99.90;;;;;;5032401;28;20030;-83
2021/11/17 02:58:50;;;;;;;55.00;22.98;;;6.60;99.90;;;;;;5018938;28;20029;-81
2021/11/17 03:01:35;;;;;;;58.15;24.45;;;6.70;99.90;;;;;;5007755;28;20044;-81
2021/11/17 03:04:20;;;;;;;59.88;26.13;;;6.70;99.90;;;;;;5016156;28;20050;-83
2021/11/17 03:06:49;;;;;;;51.15;22.13;;;6.70;99.90;;;;;;5040085;28;20037;-83
2021/11/17 03:09:28;;;;;;;65.97;25.73;;;6.70;99.90;;;;;;5023851;28;20056;-83
2021/11/17 03:11:57;;;;;;;64.45;26.90;;;6.60;99.90;;;;;;5037400;28;20028;-83
2021/11/17 03:14:47;;;;;;;58.58;25.98;;;6.70;99.90;;;;;;5008881;28;20358;-83
2021/11/17 03:17:35;;;;;;;59.53;23.50;;;6.60;99.90;;;;;;5037819;28;20036;-83
2021/11/17 03:20:22;;;;;;;61.67;24.58;;;6.70;99.90;;;;;;5037457;28;20041;-81
2021/11/17 03:23:18;;;;;;;52.22;22.67;;;6.70;99.90;;;;;;5007618;28;20042;-81
2021/11/17 03:26:06;;;;;;;57.03;23.50;;;6.70;99.90;;;;;;5040839;28;20060;-81
2021/11/17 03:28:48;;;;;;;63.92;26.63;;;6.70;99.90;;;;;;5020643;28;20033;-81
2021/11/17 03:31:38;;;;;;;72.47;26.15;;;6.70;99.90;;;;;;5005718;28;20034;-81
2021/11/17 03:34:33;;;;;;;56.58;24.10;;;6.70;99.90;;;;;;5006080;28;20033;-81
2021/11/17 03:37:23;;;;;;;57.78;23.88;;;6.70;99.90;;;;;;5019497;28;20049;-81
2021/11/17 03:40:40;;;;;;;59.47;24.60;;;6.70;99.90;;;;;;5038298;28;20042;-82
2021/11/17 03:43:16;;;;;;;51.90;21.00;;;6.70;99.90;;;;;;4992062;28;20034;-81
2021/11/17 03:45:52;;;;;;;50.83;21.40;;;6.70;99.90;;;;;;5014396;28;20029;-83
2021/11/17 03:48:40;;;;;;;60.80;25.80;;;6.80;99.90;;;;;;5021458;28;20037;-83
2021/11/17 03:51:21;;;;;;;58.70;24.83;;;6.80;99.90;;;;;;5022740;28;20049;-83
2021/11/17 03:54:00;;;;;;;64.13;25.70;;;6.80;99.90;;;;;;5019046;28;20413;-83
2021/11/17 03:56:29;;;;;;;62.85;26.30;;;6.80;99.90;;;;;;5021953;28;20507;-83
2021/11/17 03:59:05;;;;;;;53.17;22.25;;;6.80;99.90;;;;;;5006839;28;20045;-83
2021/11/17 04:01:55;;;;;;;52.50;22.65;;;6.80;99.90;;;;;;5032859;28;20026;-83
2021/11/17 04:04:56;;;;;;;58.47;24.50;;;6.80;99.90;;;;;;5019162;28;20551;-83
2021/11/17 04:07:44;;;;;;;61.30;24.08;;;6.80;99.90;;;;;;4973349;28;20037;-83
2021/11/17 04:10:38;;;;;;;56.47;24.35;;;6.80;99.90;;;;;;5020053;28;20060;-83
2021/11/17 04:13:29;;;;;;;58.08;24.55;;;6.80;99.90;;;;;;5038400;28;20045;-81
2021/11/17 04:16:14;;;;;;;64.72;27.55;;;6.80;99.90;;;;;;5003191;28;20393;-81
2021/11/17 04:19:16;;;;;;;51.08;21.60;;;6.80;99.90;;;;;;5020153;28;20044;-81
2021/11/17 04:21:48;;;;;;;51.42;22.20;;;6.80;99.90;;;;;;5002101;28;20041;-81
2021/11/17 04:24:33;;;;;;;53.83;25.73;;;6.80;99.90;;;;;;5021114;28;20037;-81
2021/11/17 04:27:09;;;;;;;63.00;25.92;;;6.80;99.90;;;;;;5000146;28;20443;-82
2021/11/17 04:29:38;;;;;;;58.45;25.83;;;6.80;99.90;;;;;;5019721;28;20048;-81
2021/11/17 04:32:13;;;;;;;52.92;23.85;;;6.80;99.90;;;;;;5001656;28;20057;-80
2021/11/17 04:34:39;;;;;;;59.90;26.48;;;6.80;99.90;;;;;;5023285;28;20623;-81
2021/11/17 04:37:23;;;;;;;63.47;26.50;;;6.80;99.90;;;;;;5023154;28;20041;-81
2021/11/17 04:40:18;;;;;;;55.60;24.75;;;6.80;99.90;;;;;;4988559;28;20579;-83
2021/11/17 04:43:13;;;;;;;51.75;21.38;;;6.80;99.90;;;;;;5018251;28;20049;-83
2021/11/17 04:46:18;;;;;;;54.65;23.00;;;6.80;99.90;;;;;;5001984;28;20025;-81
2021/11/17 04:49:03;;;;;;;54.20;24.02;;;6.80;99.90;;;;;;5040095;28;20053;-83
2021/11/17 04:51:39;;;;;;;56.78;23.50;;;6.80;99.90;;;;;;5016853;28;20427;-89
2021/11/17 04:54:39;;;;;;;53.47;23.17;;;6.80;99.90;;;;;;5000067;28;20453;-89
2021/11/17 04:57:19;;;;;;;57.53;24.42;;;6.80;99.90;;;;;;5018521;28;20028;-89
2021/11/17 05:00:11;;;;;;;46.25;20.05;;;6.80;99.90;;;;;;4968549;28;20034;-89
2021/11/17 05:02:47;;;;;;;66.45;26.60;;;6.80;99.90;;;;;;5017272;28;20044;-88
2021/11/17 05:05:28;;;;;;;63.95;25.02;;;6.80;99.90;;;;;;5013377;28;20028;-88
2021/11/17 05:08:07;;;;;;;57.83;24.65;;;6.80;99.90;;;;;;4984263;28;20470;-88
2021/11/17 05:10:46;;;;;;;57.22;23.00;;;6.80;99.90;;;;;;5018409;28;20041;-89
2021/11/17 05:13:27;;;;;;;50.72;21.70;;;6.80;99.90;;;;;;4987727;28;20472;-88
2021/11/17 05:15:59;;;;;;;52.63;22.35;;;6.80;99.90;;;;;;4984753;28;20037;-88
2021/11/17 05:18:56;;;;;;;48.30;21.35;;;6.80;99.90;;;;;;5002639;28;20045;-88
2021/11/17 05:21:42;;;;;;;49.25;19.95;;;6.80;99.90;;;;;;5014938;28;20044;-88
2021/11/17 05:24:25;;;;;;;51.65;20.73;;;6.80;99.90;;;;;;5013807;28;20049;-88
2021/11/17 05:27:10;;;;;;;49.63;20.77;;;6.70;99.90;;;;;;5017893;28;20034;-89
2021/11/17 05:30:10;;;;;;;51.42;20.73;;;6.80;99.90;;;;;;5000253;28;20037;-88
2021/11/17 05:33:00;;;;;;;57.70;22.50;;;6.70;99.90;;;;;;5005162;28;20507;-89
2021/11/17 05:35:52;;;;;;;55.53;22.55;;;6.70;99.90;;;;;;4985621;28;20385;-89
2021/11/17 05:38:30;;;;;;;54.22;20.70;;;6.70;99.90;;;;;;5002369;28;20497;-89
2021/11/17 05:41:16;;;;;;;47.63;19.15;;;6.70;99.90;;;;;;5017152;28;20056;-89
2021/11/17 05:44:01;;;;;;;51.22;22.00;;;6.70;99.90;;;;;;5035172;28;20025;-89
2021/11/17 05:46:34;;;;;;;51.15;22.02;;;6.70;99.90;;;;;;5002761;28;20029;-88
2021/11/17 05:49:29;;;;;;;51.58;21.20;;;6.70;99.90;;;;;;5015481;28;20040;-89
2021/11/17 05:52:06;;;;;;;54.50;21.63;;;6.70;99.90;;;;;;5019558;28;20048;-89
2021/11/17 05:54:59;;;;;;;46.67;18.27;;;6.70;99.90;;;;;;4999020;28;20033;-89
2021/11/17 05:57:44;;;;;;;50.40;19.65;;;6.70;99.90;;;;;;5005081;28;20485;-89
2021/11/17 06:00:48;;;;;;;55.10;20.98;;;6.70;99.90;;;;;;5011630;28;20037;-89
2021/11/17 06:03:20;;;;;;;46.35;19.05;;;6.70;99.90;;;;;;5014860;28;20025;-88
2021/11/17 06:05:46;;;;;;;52.42;20.45;;;6.70;99.90;;;;;;5037646;28;20025;-84
2021/11/17 06:08:12;;;;;;;49.85;20.30;;;6.70;99.90;;;;;;5003197;28;20029;-83
2021/11/17 06:10:44;;;;;;;52.47;20.05;;;6.80;99.90;;;;;;5018785;28;20040;-83
2021/11/17 06:13:14;;;;;;;48.55;20.60;;;6.80;99.90;;;;;;5018813;28;20049;-83
2021/11/17 06:15:43;;;;;;;44.47;19.33;;;6.80;99.90;;;;;;5019139;28;20619;-83
2021/11/17 06:18:13;;;;;;;55.15;22.95;;;6.90;99.90;;;;;;5026474;28;20044;-83
2021/11/17 06:20:41;;;;;;;53.85;21.73;;;6.80;99.90;;;;;;5000439;28;20033;-84
2021/11/17 06:23:20;;;;;;;50.90;21.40;;;6.90;99.90;;;;;;5030160;28;20048;-83
2021/11/17 06:25:47;;;;;;;49.40;20.33;;;6.90;99.90;;;;;;5032536;28;20025;-83
2021/11/17 06:28:23;;;;;;;50.72;20.85;;;6.90;99.90;;;;;;5002960;28;20041;-81
2021/11/17 06:30:51;;;;;;;59.78;23.80;;;6.90;99.90;;;;;;5015532;28;20385;-78
2021/11/17 06:33:18;;;;;;;56.65;24.27;;;7.00;99.90;;;;;;5001768;28;20620;-84
2021/11/17 06:35:45;;;;;;;59.53;25.38;;;7.00;99.90;;;;;;5023213;28;20036;-82
2021/11/17 06:38:12;;;;;;;50.53;21.23;;;7.00;99.90;;;;;;5021603;28;20046;-83
2021/11/17 06:40:42;;;;;;;60.13;25.23;;;7.00;99.90;;;;;;5023918;28;20377;-83
2021/11/17 06:43:10;;;;;;;57.03;23.40;;;7.00;99.90;;;;;;5003644;28;20034;-81
2021/11/17 06:45:39;;;;;;;57.47;23.95;;;7.10;99.90;;;;;;5034915;28;20052;-82
2021/11/17 06:48:08;;;;;;;63.75;24.98;;;7.10;99.90;;;;;;5018739;28;20048;-80
2021/11/17 06:50:37;;;;;;;52.88;22.02;;;7.10;99.90;;;;;;5036097;28;20041;-80
2021/11/17 06:53:05;;;;;;;55.53;21.60;;;7.10;99.90;;;;;;5019451;28;20041;-84
2021/11/17 06:55:31;;;;;;;56.35;22.73;;;7.10;99.90;;;;;;5004424;28;20044;-82
2021/11/17 06:57:58;;;;;;;51.58;22.88;;;7.10;99.90;;;;;;5000419;28;20269;-82
2021/11/17 07:00:27;;;;;;;49.50;20.98;;;7.10;99.90;;;;;;5022179;28;20037;-82
2021/11/17 07:02:54;;;;;;;59.58;25.02;;;7.20;99.90;;;;;;5002594;28;20124;-82
2021/11/17 07:05:21;;;;;;;57.53;26.20;;;7.10;99.90;;;;;;5010587;28;20033;-82
2021/11/17 07:07:52;;;;;;;63.10;26.98;;;7.20;99.90;;;;;;5023291;28;20397;-82
2021/11/17 07:10:18;;;;;;;49.28;22.55;;;7.10;99.90;;;;;;5005410;28;20511;-82
2021/11/17 07:12:45;;;;;;;53.85;23.13;;;7.20;99.90;;;;;;5038407;28;20040;-82
2021/11/17 07:15:13;;;;;;;65.97;25.45;;;7.20;99.90;;;;;;5040656;28;20388;-82
2021/11/17 07:17:40;;;;;;;57.20;24.70;;;7.20;99.90;;;;;;5042342;28;20048;-82
2021/11/17 07:20:11;;;;;;;54.67;24.38;;;7.20;99.90;;;;;;5041592;28;20045;-83
2021/11/17 07:22:38;;;;;;;52.47;22.55;;;7.20;99.90;;;;;;5038129;28;20025;-81
2021/11/17 07:25:07;;;;;;;54.45;22.42;;;7.20;99.90;;;;;;5006603;28;20045;-82
2021/11/17 07:27:36;;;;;;;54.50;22.45;;;7.20;99.90;;;;;;5007774;28;20044;-82
2021/11/17 07:30:05;;;;;;;52.78;22.35;;;7.20;99.90;;;;;;5024650;28;20389;-82
2021/11/17 07:32:32;;;;;;;62.13;28.42;;;7.20;99.90;;;;;;5019101;28;20041;-82
2021/11/17 07:34:59;;;;;;;52.50;23.52;;;7.20;99.90;;;;;;5006078;28;20041;-81
2021/11/17 07:37:26;;;;;;;44.00;18.30;;;7.20;99.90;;;;;;5039791;28;20405;-82
2021/11/17 07:39:52;;;;;;;59.50;22.90;;;7.30;99.90;;;;;;5036771;28;20396;-81
2021/11/17 07:42:19;;;;;;;54.35;23.02;;;7.30;99.90;;;;;;5018972;28;20029;-80
2021/11/17 07:44:48;;;;;;;57.45;23.20;;;7.30;99.90;;;;;;4989383;28;20040;-80
2021/11/17 07:47:14;;;;;;;60.25;24.25;;;7.30;99.90;;;;;;5038098;28;21123;-81
2021/11/17 07:49:41;;;;;;;55.25;23.60;;;7.30;99.90;;;;;;5023754;28;20392;-78
2021/11/17 07:52:08;;;;;;;64.13;27.23;;;7.30;99.90;;;;;;5023916;28;20579;-80
2021/11/17 07:54:37;;;;;;;64.57;26.90;;;7.30;99.90;;;;;;5020824;28;20041;-81
2021/11/17 07:57:05;;;;;;;67.70;28.52;;;7.30;99.90;;;;;;5020859;28;20040;-81
2021/11/17 07:59:34;;;;;;;56.38;24.23;;;7.40;99.90;;;;;;5022736;28;20043;-83
2021/11/17 08:02:05;;;;;;;54.90;22.85;;;7.40;99.90;;;;;;5025088;28;20503;-82
2021/11/17 08:04:34;;;;;;;60.50;24.52;;;7.40;99.90;;;;;;5019966;28;20036;-85
2021/11/17 08:07:05;;;;;;;59.55;24.55;;;7.40;99.90;;;;;;5035882;28;20056;-85
2021/11/17 08:09:32;;;;;;;63.90;26.23;;;7.50;99.90;;;;;;5037554;28;20025;-85
2021/11/17 08:11:59;;;;;;;66.78;25.58;;;7.50;99.90;;;;;;5017813;28;20473;-85
2021/11/17 08:14:25;;;;;;;66.95;26.35;;;7.50;99.90;;;;;;5021286;28;20041;-84
2021/11/17 08:16:52;;;;;;;67.50;26.52;;;7.60;99.90;;;;;;5002964;28;20041;-86
2021/11/17 08:19:18;;;;;;;76.80;29.95;;;7.60;99.90;;;;;;4999597;28;20127;-84
2021/11/17 08:21:45;;;;;;;71.20;25.92;;;7.60;99.90;;;;;;4994297;28;20056;-83
2021/11/17 08:24:11;;;;;;;80.57;29.67;;;7.70;99.90;;;;;;5004021;28;20495;-85
2021/11/17 08:26:38;;;;;;;81.57;30.15;;;7.70;99.90;;;;;;5016498;28;20503;-84
2021/11/17 08:29:04;;;;;;;70.95;26.95;;;7.70;99.90;;;;;;5022640;28;20465;-84
2021/11/17 08:31:32;;;;;;;85.07;32.80;;;7.80;99.90;;;;;;5036202;28;20048;-83
2021/11/17 08:33:58;;;;;;;67.75;26.52;;;7.80;99.90;;;;;;5036636;28;20053;-79
2021/11/17 08:36:25;;;;;;;66.30;25.38;;;7.80;99.90;;;;;;5034087;28;20512;-83
2021/11/17 08:38:54;;;;;;;63.30;25.80;;;7.90;99.90;;;;;;5031955;28;20140;-84
2021/11/17 08:41:23;;;;;;;62.53;26.33;;;7.90;99.90;;;;;;5007858;28;20033;-83
2021/11/17 08:43:50;;;;;;;65.93;28.42;;;7.90;99.90;;;;;;5038322;28;20049;-84
2021/11/17 08:46:16;;;;;;;78.72;30.50;;;7.90;99.90;;;;;;5021008;28;20029;-84
2021/11/17 08:48:43;;;;;;;60.20;24.35;;;7.90;99.90;;;;;;5034363;28;20424;-81
2021/11/17 08:51:16;;;;;;;73.40;29.30;;;8.00;99.90;;;;;;5036656;28;20037;-77
2021/11/17 08:53:45;;;;;;;75.20;28.75;;;8.00;99.90;;;;;;5020667;28;20029;-81
2021/11/17 08:56:12;;;;;;;74.32;28.27;;;8.10;99.90;;;;;;5040082;28;20037;-81
2021/11/17 08:58:40;;;;;;;86.07;29.55;;;8.10;99.90;;;;;;5033738;28;20033;-82
2021/11/17 09:01:08;;;;;;;77.75;33.47;;;8.10;99.90;;;;;;5034541;28;20481;-81
2021/11/17 09:03:36;;;;;;;74.50;29.23;;;8.20;99.90;;;;;;5039374;28;20380;-81
2021/11/17 09:06:07;;;;;;;79.05;30.23;;;8.30;99.90;;;;;;5019272;28;20036;-81
2021/11/17 09:08:34;;;;;;;77.65;30.45;;;8.30;99.90;;;;;;5019251;28;20396;-81
2021/11/17 09:11:05;;;;;;;95.28;36.28;;;8.30;99.90;;;;;;5022775;28;20033;-81
2021/11/17 09:13:32;;;;;;;65.35;24.38;;;8.30;99.90;;;;;;5039768;28;20029;-81
2021/11/17 09:15:59;;;;;;;81.22;31.38;;;8.40;99.90;;;;;;5019720;28;20029;-81
2021/11/17 09:18:30;;;;;;;92.22;35.13;;;8.40;99.90;;;;;;5015104;28;20037;-81
2021/11/17 09:20:58;;;;;;;86.15;34.03;;;8.40;99.90;;;;;;5035379;28;20025;-81
2021/11/17 09:23:26;;;;;;;84.93;31.48;;;8.30;99.90;;;;;;5036423;28;20333;-81
2021/11/17 09:25:55;;;;;;;89.95;33.20;;;8.30;99.90;;;;;;5019281;28;20045;-83
2021/11/17 09:28:22;;;;;;;74.55;30.27;;;8.30;99.90;;;;;;5036522;28;20473;-83
2021/11/17 09:30:51;;;;;;;81.47;32.05;;;8.30;99.90;;;;;;5039884;28;20044;-83
2021/11/17 09:33:20;;;;;;;84.10;31.30;;;8.40;99.90;;;;;;5035661;28;20715;-80
2021/11/17 09:35:47;;;;;;;84.35;31.42;;;8.40;99.90;;;;;;5021231;28;20025;-80
2021/11/17 09:38:14;;;;;;;87.43;32.17;;;8.50;99.90;;;;;;5037715;28;20056;-80
2021/11/17 09:40:55;;;;;;;89.78;34.72;;;8.50;99.90;;;;;;5035562;28;20041;-80
2021/11/17 09:43:26;;;;;;;82.93;31.90;;;8.50;99.90;;;;;;5018345;28;20036;-82
2021/11/17 09:45:54;;;;;;;83.45;33.17;;;8.60;99.90;;;;;;5021549;28;20032;-82
2021/11/17 09:48:25;;;;;;;71.18;29.73;;;8.60;99.90;;;;;;5035126;28;20029;-82
2021/11/17 09:50:55;;;;;;;77.47;27.92;;;8.70;99.90;;;;;;5037014;28;20496;-80
2021/11/17 09:53:37;;;;;;;71.72;29.27;;;8.70;99.90;;;;;;5039271;28;20025;-81
2021/11/17 09:56:25;;;;;;;75.47;29.20;;;8.70;99.90;;;;;;5034332;28;20040;-81
2021/11/17 09:59:01;;;;;;;70.20;27.80;;;8.70;99.90;;;;;;5020406;28;20045;-82
2021/11/17 10:02:01;;;;;;;75.38;30.25;;;8.70;99.90;;;;;;5033070;28;20037;-81
2021/11/17 10:04:39;;;;;;;67.13;28.65;;;8.70;99.90;;;;;;5001032;28;20041;-82
2021/11/17 10:13:17;;;;;;;60.40;26.00;;;8.80;99.90;;;;;;5030157;28;20048;-79
2021/11/17 10:15:51;;;;;;;55.03;23.98;;;8.80;99.90;;;;;;5013765;28;20037;-79
2021/11/17 10:18:18;;;;;;;64.97;26.83;;;8.80;99.90;;;;;;5035636;28;20045;-79
2021/11/17 10:20:48;;;;;;;64.38;28.33;;;8.80;99.90;;;;;;5031179;28;20631;-79
2021/11/17 10:23:24;;;;;;;66.60;28.70;;;8.80;99.90;;;;;;5030256;28;20041;-79
2021/11/17 10:25:53;;;;;;;73.35;29.33;;;8.80;99.90;;;;;;5031479;28;20041;-79
2021/11/17 10:28:29;;;;;;;74.13;31.25;;;8.80;99.90;;;;;;5035397;28;20026;-80
2021/11/17 10:31:11;;;;;;;76.60;32.60;;;8.80;99.90;;;;;;5032097;28;20057;-79
2021/11/17 10:34:14;;;;;;;73.25;30.35;;;8.90;99.90;;;;;;5013459;28;20025;-79
2021/11/17 10:37:04;;;;;;;74.07;30.15;;;8.90;99.90;;;;;;5018926;28;20034;-79
2021/11/17 10:39:37;;;;;;;71.25;28.88;;;8.90;99.90;;;;;;5003865;28;20480;-79
2021/11/17 10:42:19;;;;;;;67.03;28.13;;;8.90;99.90;;;;;;5033608;28;20491;-79
2021/11/17 10:44:50;;;;;;;74.28;31.48;;;9.00;99.90;;;;;;5029334;28;20036;-79
2021/11/17 10:47:19;;;;;;;75.30;31.13;;;9.10;99.90;;;;;;5014457;28;20033;-79
2021/11/17 10:49:50;;;;;;;78.05;30.90;;;9.10;99.90;;;;;;5016799;28;20026;-78
2021/11/17 10:52:27;;;;;;;84.35;32.10;;;9.20;99.90;;;;;;5015094;28;20036;-79
2021/11/17 10:54:56;;;;;;;71.78;30.65;;;9.30;99.90;;;;;;5035327;28;20033;-79
2021/11/17 10:57:26;;;;;;;82.68;32.75;;;9.30;99.90;;;;;;5034799;28;20097;-79
2021/11/17 10:59:58;;;;;;;82.80;31.83;;;9.40;99.90;;;;;;5035640;28;20036;-79
2021/11/17 11:02:27;;;;;;;79.75;31.50;;;9.50;99.90;;;;;;5029997;28;20025;-79
2021/11/17 11:05:05;;;;;;;76.72;30.67;;;9.60;99.90;;;;;;5029137;28;20467;-79
2021/11/17 11:08:16;;;;;;;79.38;32.13;;;9.70;99.90;;;;;;5031972;28;20025;-79
2021/11/17 11:10:47;;;;;;;79.18;32.15;;;9.80;99.90;;;;;;5025840;28;20115;-78
2021/11/17 11:13:42;;;;;;;80.20;33.38;;;9.80;99.90;;;;;;5039410;28;20034;-78
2021/11/17 11:16:24;;;;;;;86.43;35.75;;;9.90;99.90;;;;;;5018689;28;20029;-78
2021/11/17 11:19:12;;;;;;;79.55;32.22;;;10.00;99.90;;;;;;5032100;28;20053;-77
2021/11/17 11:21:41;;;;;;;95.07;37.22;;;10.00;99.90;;;;;;5019846;28;20048;-79
2021/11/17 11:24:28;;;;;;;97.57;38.65;;;10.10;99.90;;;;;;5043719;28;20053;-76
2021/11/17 11:26:58;;;;;;;88.72;36.65;;;10.10;99.90;;;;;;5032080;28;20033;-78
2021/11/17 11:29:35;;;;;;;98.30;39.05;;;10.20;99.90;;;;;;5043169;28;20381;-78
2021/11/17 11:32:06;;;;;;;92.45;38.22;;;10.30;99.90;;;;;;5029050;28;20048;-77
2021/11/17 11:34:42;;;;;;;110.10;42.72;;;10.30;99.90;;;;;;5046629;28;20580;-76
2021/11/17 11:37:22;;;;;;;98.72;37.33;;;10.40;99.90;;;;;;5041608;28;20369;-79
2021/11/17 11:39:57;;;;;;;99.03;39.05;;;10.50;99.90;;;;;;5023477;28;20045;-79
2021/11/17 11:42:38;;;;;;;89.80;37.38;;;10.50;99.90;;;;;;5039172;28;20559;-80
2021/11/17 11:45:08;;;;;;;91.40;36.25;;;10.60;99.90;;;;;;5033574;28;20032;-81
2021/11/17 11:47:50;;;;;;;88.82;36.38;;;10.60;99.90;;;;;;5037190;28;20460;-80
2021/11/17 11:50:32;;;;;;;80.07;34.85;;;10.60;99.90;;;;;;5032430;28;20037;-79
2021/11/17 11:53:45;;;;;;;80.25;33.55;;;10.60;99.90;;;;;;5034821;28;20028;-79
2021/11/17 11:56:20;;;;;;;79.00;33.08;;;10.70;99.90;;;;;;5037344;28;20030;-80
2021/11/17 11:58:47;;;;;;;79.75;32.70;;;10.80;99.90;;;;;;5035108;28;20073;-79
2021/11/17 12:01:19;;;;;;;79.32;32.75;;;10.80;99.90;;;;;;5033736;28;20029;-81
2021/11/17 12:03:58;;;;;;;72.85;30.85;;;10.90;99.90;;;;;;5034740;28;20036;-81
2021/11/17 12:06:39;;;;;;;78.57;33.30;;;11.00;99.90;;;;;;5033090;28;20056;-78
2021/11/17 12:09:29;;;;;;;85.75;37.00;;;11.10;99.90;;;;;;5040277;28;20485;-78
2021/11/17 12:11:59;;;;;;;78.82;36.58;;;11.30;99.90;;;;;;5035035;28;20040;-76
2021/11/17 12:14:51;;;;;;;72.97;32.88;;;11.40;99.90;;;;;;5022580;28;20034;-76
2021/11/17 12:17:21;;;;;;;78.07;34.67;;;11.40;99.90;;;;;;4994911;28;20490;-77
2021/11/17 12:19:52;;;;;;;65.30;30.92;;;11.30;99.90;;;;;;5024579;28;20527;-77
2021/11/17 12:22:44;;;;;;;62.95;29.70;;;11.30;99.90;;;;;;5039015;28;20033;-77
2021/11/17 12:25:22;;;;;;;70.47;31.92;;;11.30;99.90;;;;;;5035904;28;20042;-77
2021/11/17 12:28:05;;;;;;;56.30;27.27;;;11.30;99.90;;;;;;5035725;28;20029;-77
2021/11/17 12:30:50;;;;;;;64.97;29.38;;;11.50;99.90;;;;;;5038975;28;20033;-77
2021/11/17 12:33:43;;;;;;;63.42;29.25;;;11.60;99.90;;;;;;5035681;28;20029;-77
2021/11/17 12:36:32;;;;;;;52.65;27.15;;;11.70;99.90;;;;;;5037431;28;20025;-77
2021/11/17 12:39:16;;;;;;;60.67;29.75;;;11.70;99.90;;;;;;5037519;28;20576;-77
2021/11/17 12:41:44;;;;;;;61.65;29.75;;;11.70;99.90;;;;;;5033145;28;20033;-78
2021/11/17 12:44:20;;;;;;;53.42;26.67;;;11.70;99.90;;;;;;5037563;28;20040;-77
2021/11/17 12:46:58;;;;;;;57.55;28.90;;;11.60;99.90;;;;;;5038670;28;20033;-77
2021/11/17 12:49:44;;;;;;;50.85;25.45;;;11.60;99.90;;;;;;5039102;28;20378;-78
2021/11/17 12:52:36;;;;;;;51.80;26.00;;;11.50;99.90;;;;;;5017878;28;20040;-79
2021/11/17 12:55:18;;;;;;;45.60;24.38;;;11.50;99.90;;;;;;5033249;28;20045;-76
2021/11/17 12:57:53;;;;;;;54.13;25.13;;;11.40;99.90;;;;;;5034518;28;20396;-75
2021/11/17 13:00:19;;;;;;;46.20;21.58;;;11.30;99.90;;;;;;5036504;28;20060;-76
2021/11/17 13:02:59;;;;;;;45.63;23.52;;;11.20;99.90;;;;;;5039064;28;20484;-77
2021/11/17 13:05:29;;;;;;;46.72;23.80;;;11.10;99.90;;;;;;5015703;28;20036;-77
2021/11/17 13:08:08;;;;;;;48.17;22.42;;;11.10;99.90;;;;;;5020344;28;20029;-78
2021/11/17 13:10:34;;;;;;;47.22;22.13;;;11.00;99.90;;;;;;5035947;28;20033;-78
2021/11/17 13:13:21;;;;;;;44.42;23.20;;;10.90;99.90;;;;;;5026319;28;20037;-77
2021/11/17 13:15:51;;;;;;;45.78;23.42;;;10.90;99.90;;;;;;5053378;28;20038;-78
2021/11/17 13:18:51;;;;;;;41.72;22.02;;;11.00;99.90;;;;;;5014205;28;20366;-78
2021/11/17 13:21:26;;;;;;;37.47;18.98;;;11.10;99.90;;;;;;5033952;28;20033;-79
2021/11/17 13:23:55;;;;;;;35.88;20.30;;;11.20;99.90;;;;;;5024329;28;20037;-78
2021/11/17 13:26:43;;;;;;;30.95;16.73;;;11.30;99.90;;;;;;5032674;28;20503;-79
2021/11/17 13:29:22;;;;;;;31.80;16.92;;;11.40;99.90;;;;;;5033880;28;20050;-78
2021/11/17 13:31:51;;;;;;;35.53;18.48;;;11.40;99.90;;;;;;5037334;28;20041;-78
2021/11/17 13:34:42;;;;;;;47.65;22.20;;;11.40;99.90;;;;;;5017367;28;20488;-78
2021/11/17 13:37:38;;;;;;;61.63;29.17;;;11.50;99.90;;;;;;5017402;28;20489;-79
2021/11/17 13:40:12;;;;;;;51.00;24.52;;;11.70;99.90;;;;;;5038655;28;20476;-77
2021/11/17 13:42:39;;;;;;;43.22;22.27;;;11.80;99.90;;;;;;5039139;28;20045;-77
2021/11/17 13:45:12;;;;;;;46.25;23.38;;;12.00;99.90;;;;;;5035575;28;20028;-77
2021/11/17 13:47:39;;;;;;;40.47;21.20;;;12.00;99.90;;;;;;5019012;28;20040;-77
2021/11/17 13:50:11;;;;;;;44.13;21.33;;;12.10;99.90;;;;;;5035898;28;20501;-77
2021/11/17 13:52:42;;;;;;;35.88;18.98;;;12.20;99.90;;;;;;5032322;28;20048;-78
2021/11/17 13:55:13;;;;;;;36.42;17.90;;;12.30;99.90;;;;;;5034561;28;20030;-79
2021/11/17 13:57:42;;;;;;;38.25;16.63;;;12.20;99.90;;;;;;5032381;28;20026;-78
2021/11/17 14:00:10;;;;;;;31.98;14.80;;;12.20;99.90;;;;;;4999930;28;20048;-78
2021/11/17 14:02:42;;;;;;;25.55;12.65;;;12.20;99.90;;;;;;5016163;28;20040;-77
2021/11/17 14:05:09;;;;;;;25.17;11.20;;;12.10;99.90;;;;;;5015535;28;20036;-77
2021/11/17 14:07:35;;;;;;;21.70;10.52;;;12.00;99.90;;;;;;4999915;28;20029;-77
2021/11/17 14:10:06;;;;;;;20.60;10.23;;;11.90;99.90;;;;;;5032318;28;20048;-77
2021/11/17 14:12:33;;;;;;;23.40;10.77;;;11.80;99.90;;;;;;5035417;28;20481;-76
2021/11/17 14:15:00;;;;;;;22.85;9.40;;;11.80;99.90;;;;;;4999984;28;20499;-77
2021/11/17 14:17:26;;;;;;;20.75;8.68;;;11.90;99.90;;;;;;5015255;28;20029;-76
2021/11/17 14:19:53;;;;;;;19.23;8.30;;;12.00;99.90;;;;;;5019397;28;20051;-77
2021/11/17 14:22:19;;;;;;;24.08;8.25;;;12.00;99.90;;;;;;5011232;28;20060;-76
2021/11/17 14:24:46;;;;;;;23.52;8.05;;;11.90;99.90;;;;;;5017468;28;20049;-77
2021/11/17 14:27:14;;;;;;;22.00;7.13;;;11.80;99.90;;;;;;5014769;28;20048;-82
2021/11/17 14:29:45;;;;;;;23.65;6.18;;;11.70;99.90;;;;;;5029088;28;20040;-81
2021/11/17 14:32:19;;;;;;;23.48;5.50;;;11.60;99.90;;;;;;5029287;28;20041;-82
2021/11/17 14:34:46;;;;;;;14.75;5.25;;;11.60;99.90;;;;;;5029569;28;20500;-82
2021/11/17 14:37:13;;;;;;;14.90;4.68;;;11.60;99.90;;;;;;5029760;28;20041;-82
2021/11/17 14:39:41;;;;;;;15.77;4.18;;;11.50;99.90;;;;;;5030795;28;20044;-82
2021/11/17 14:42:10;;;;;;;17.65;3.72;;;11.50;99.90;;;;;;5029813;28;20480;-82
2021/11/17 14:44:37;;;;;;;13.13;3.08;;;11.50;99.90;;;;;;5029461;28;20038;-81
2021/11/17 14:47:05;;;;;;;20.73;3.95;;;11.40;99.90;;;;;;5029848;28;20034;-81
2021/11/17 14:49:32;;;;;;;20.70;3.70;;;11.30;99.90;;;;;;5028993;28;20042;-81
2021/11/17 14:52:01;;;;;;;12.10;1.73;;;11.30;99.90;;;;;;5028416;28;20491;-82
2021/11/17 14:54:28;;;;;;;10.63;2.22;;;11.20;99.90;;;;;;5028614;28;20045;-82
2021/11/17 14:56:55;;;;;;;14.13;2.25;;;11.00;99.90;;;;;;5036770;28;20042;-82
2021/11/17 14:59:21;;;;;;;13.43;4.88;;;10.90;99.90;;;;;;5030902;28;20369;-82
2021/11/17 15:01:48;;;;;;;19.38;5.18;;;10.70;99.90;;;;;;4999003;28;20041;-75
2021/11/17 15:04:15;;;;;;;14.85;5.07;;;10.60;99.90;;;;;;5033221;28;20026;-82
2021/11/17 15:06:43;;;;;;;12.88;4.22;;;10.50;99.90;;;;;;5031475;28;20040;-80
2021/11/17 15:09:11;;;;;;;12.88;3.00;;;10.40;99.90;;;;;;5039139;28;20392;-80
2021/11/17 15:11:55;;;;;;;15.18;2.60;;;10.30;99.90;;;;;;5033450;28;20038;-82
2021/11/17 15:14:24;;;;;;;16.42;1.95;;;10.20;99.90;;;;;;5032053;28;20028;-81
2021/11/17 15:16:51;;;;;;;13.38;2.35;;;10.00;99.90;;;;;;5032836;28;20041;-81
2021/11/17 15:19:18;;;;;;;11.25;1.55;;;9.90;99.90;;;;;;5015824;28;20381;-81
2021/11/17 15:21:45;;;;;;;9.55;1.40;;;9.80;99.90;;;;;;4999137;28;20049;-81
2021/11/17 15:24:12;;;;;;;12.05;1.85;;;9.80;99.90;;;;;;5034151;28;20045;-81
2021/11/17 15:27:28;;;;;;;6.03;1.15;;;9.60;99.90;;;;;;5033856;28;20060;-81
2021/11/17 15:29:55;;;;;;;12.00;1.45;;;9.50;99.90;;;;;;5028005;28;20060;-81
2021/11/17 15:32:22;;;;;;;8.23;1.15;;;9.40;99.90;;;;;;5035454;28;20384;-81
2021/11/17 15:34:49;;;;;;;9.75;1.23;;;9.30;99.90;;;;;;5032391;28;20634;-81
2021/11/17 15:37:16;;;;;;;13.93;1.38;;;9.20;99.90;;;;;;5035735;28;20037;-81
2021/11/17 15:39:43;;;;;;;13.93;1.83;;;9.10;99.90;;;;;;5036184;28;20405;-81
2021/11/17 15:42:10;;;;;;;6.57;1.17;;;9.00;99.90;;;;;;5015103;28;20041;-81
2021/11/17 15:44:37;;;;;;;8.68;1.40;;;8.90;99.90;;;;;;5033572;28;20052;-81
2021/11/17 15:47:06;;;;;;;10.98;1.00;;;8.80;99.90;;;;;;5036094;28;20037;-82
2021/11/17 15:49:34;;;;;;;8.48;1.10;;;8.70;99.90;;;;;;5035660;28;20032;-81
2021/11/17 15:52:01;;;;;;;8.77;1.45;;;8.60;99.90;;;;;;5031005;28;20045;-81